Terminal Aerodrome Forecast
Issued by NWS Tulsa, OK

Home | Current Version | Previous Version | Text Only | Print | Product List | Glossary On
Versions: 1 2 3 4 5 6 7 8 9 10 11 12
856
FTUS44 KTSA 250520
TAFTUL
TAF
KTUL 250520Z 2506/2606 15005KT P6SM SCT250
     FM251200 VRB03KT P6SM VCTS BKN050CB
     FM251700 11007KT P6SM SCT050 BKN250 PROB30 2517/2523 5SM -TSRA
      BKN040CB
     FM260000 08005KT P6SM BKN250=

USA.gov is the U.S. government's official web portal to all federal, state and local government web resources and services.